Flight Track Log - Related Links

Times and Time Zones

All times are in EST time to prevent confusion due to time zone crossing. See the RPA3242 flight status page for this flight to view local times or setup timezone preferences in your user account.

Time Position Orientation Groundspeed Altitude Reporting Facility
EST Latitude Longitude Course Direction KTS MPH feet Rate Location/Type
Mon 09:36:49 PM 39.8667 -75.2667 37° Northeast 150 173 900  Level Philadelphia TRACON
Mon 09:37:25 PM 39.8500 -75.3000 237° Southwest 154 177 2,100 2,063 Climbing Philadelphia TRACON
Mon 09:38:25 PM 39.8000 -75.3333 207° Southwest 211 243 4,200 2,400 Climbing Philadelphia TRACON
Mon 09:39:00 PM 40.1355 -75.1147 37° Northeast  Level Estimated
Mon 09:39:25 PM 39.7500 -75.3833 218° Southwest 241 277 6,900  Level Philadelphia TRACON
Mon 09:40:00 PM 40.0925 -75.0062 117° Southeast  Level FlightAware Approximate
Mon 09:40:25 PM 39.6833 -75.3333 150° Southeast 341 392 9,000  Level Philadelphia TRACON
Mon 09:41:00 PM 40.1812 -74.9676 37° Northeast  Level Estimated
Mon 09:42:00 PM 40.2699 -74.9290 37° Northeast  Level Estimated
Mon 09:42:10 PM 39.7186 -75.1161 78° East 342 394 12,000  Level New York Center
Mon 09:43:08 PM 39.7397 -74.9986 77° East 362 417 12,000 202 Level New York Center
Mon 09:44:09 PM 39.7675 -74.8597 75° East 362 417 12,400 1,024 Climbing New York Center
Mon 09:45:11 PM 39.8189 -74.7600 56° Northeast 362 417 14,100 1,700 Climbing New York Center
Mon 09:46:09 PM 39.8950 -74.6669 43° Northeast 355 409 15,800 1,714 Climbing New York Center
Mon 09:47:10 PM 39.9819 -74.5553 45° Northeast 376 433 17,500 1,686 Climbing New York Center
Mon 09:48:10 PM 40.0622 -74.4567 43° Northeast 389 448 19,200 1,488 Climbing New York Center
Mon 09:49:11 PM 40.1483 -74.3661 39° Northeast 394 453 20,500 1,210 Climbing New York Center
Mon 09:50:09 PM 40.2386 -74.2758 37° Northeast 399 459 21,600 1,109 Climbing New York Center
Mon 09:51:10 PM 40.3331 -74.1825 37° Northeast 411 473 22,700 1,140 Climbing New York Center
Mon 09:52:10 PM 40.4275 -74.0864 38° Northeast 416 479 23,900 476 Climbing New York Center
Mon 09:53:54 PM 40.6028 -73.9728 26° Northeast 422 486 24,000 37 Climbing Boston Center
Mon 09:54:54 PM 40.7122 -73.9111 23° Northeast 425 489 24,000  Level Boston Center
Mon 09:55:55 PM 40.8153 -73.8336 30° Northeast 432 497 24,000  Level Boston Center
Mon 09:56:56 PM 40.9058 -73.7233 43° Northeast 442 509 24,000  Level Boston Center
Mon 09:57:58 PM 41.0114 -73.6675 22° Northeast 414 476 24,000  Level Boston Center
Mon 09:58:58 PM 41.1214 -73.6753 357° North 396 456 24,000 -595 Level Boston Center
Mon 09:59:59 PM 41.2283 -73.6839 357° North 386 444 22,800 -1,869 Descending Boston Center
Mon 10:01:00 PM 41.3339 -73.6928 356° North 381 438 20,200 -2,311 Descending Boston Center
Mon 10:02:01 PM 41.4506 -73.7028 356° North 367 422 18,100 -1,574 Descending Boston Center
Mon 10:03:02 PM 41.5469 -73.7094 357° North 351 404 17,000 -1,033 Descending Boston Center
Mon 10:04:03 PM 41.6417 -73.7169 357° North 344 396 16,000 -1,131 Descending Boston Center
Mon 10:05:04 PM 41.7428 -73.7239 357° North 339 390 14,700 -1,250 Descending Boston Center
Mon 10:06:03 PM 41.8361 -73.7319 356° North 338 389 13,500 -1,133 Descending Boston Center
Mon 10:06:34 PM 41.8767 -73.7358 356° North 343 395 13,000 -1,143 Descending Boston Center
Mon 10:07:06 PM 41.9297 -73.7392 357° North 338 389 12,300 -1,404 Descending Boston Center
Mon 10:07:21 PM 41.9550 -73.7417 356° North 337 388 11,900 -1,100 Descending Boston Center
Mon 10:08:06 PM 42.0200 -73.7467 357° North 328 377 11,200 -871 Descending Boston Center
Mon 10:08:23 PM 42.0442 -73.7483 357° North 320 368 11,000 -200 Descending Boston Center
Mon 10:09:06 PM 42.1122 -73.7522 358° North 321 369 11,000  Level Boston Center
Mon 10:09:27 PM 42.1456 -73.7564 355° North 313 360 11,000  Level Boston Center
Mon 10:10:06 PM 42.2008 -73.7533 North 318 366 11,000 -295 Level Boston Center
Mon 10:10:28 PM 42.2325 -73.7392 18° North 327 376 10,700 -1,098 Descending Boston Center
Mon 10:11:28 PM 42.3156 -73.7089 15° North 307 353 9,500 -1,140 Descending Boston Center
Mon 10:12:29 PM 42.3958 -73.6808 14° North 298 343 8,400 -1,140 Descending Boston Center
Mon 10:13:29 PM 42.4747 -73.6608 11° North 282 325 7,200 -1,240 Descending Boston Center
Mon 10:14:30 PM 42.5489 -73.6419 11° North 273 314 5,900 -1,230 Descending Boston Center
Mon 10:15:31 PM 42.6142 -73.6261 10° North 232 267 4,700 -1,377 Descending Boston Center
Mon 10:16:32 PM 42.6814 -73.6222 North 218 251 3,100 -934 Descending Boston Center
Mon 10:17:33 PM 42.7347 -73.6344 350° North 185 213 2,800 -645 Descending Boston Center
Mon 10:18:33 PM 42.7517 -73.6839 295° West 140 161 1,800 -879 Descending Boston Center
Mon 10:19:29 PM 42.7511 -73.7331 269° West 132 152 1,100 -724 Descending Boston Center
Mon 10:20:29 PM 42.7483 -73.7847 266° West 138 159 400 -700 Descending Boston Center

Login

Don't have an account? Register now (free) for customized features, flight alerts, and more!